ヘルシンキ/ヴァンター の空港の天気 - METARとTAF

ヘルシンキ・ヴァンター国際空港 ( EFHK / HEL ) - フィンランド ヴァンター
飛行場実況気象(Metar)
観測時間05/29 01:50 EEST (05/28 22:50 UTC)
風向・風速東北東 2m/s
視程700m
天気現象
全天の8割程度の雲 雲底高度 60m
気温7℃
湿度100%
気圧1000hPa
METAREFHK 282250Z 06004KT 0700 R04L/P2000N R15/1700D R22L/P2000N R22R/1600D FG BKN002 07/07 Q1000 TEMPO 0400 BKN001
過去の天気等 Google飛行場航空写真 Wunderground天気予報

過去48時間のMETAR

飛行場予報(TAF)
発表時間: 5/29 01:48 EEST (5/28 22:48 UTC)
予報対象時間: 29日1時 EEST ~ 30日0時 EEST
風向・風速東北東 2m/s
視程500m
天気現象
全天の8割程度の雲 雲底高度 60m
29日1時 EEST ~ 29日7時 EEST に一時的に
視程1200m
天気現象もや
全天の8割程度の雲 雲底高度 30m
29日7時 EEST ~ 29日9時 EEST に徐々に
視程10km以上
天気現象運行に影響にある天気現象が終了
全天の8割程度の雲 雲底高度 150m
29日11時 EEST ~ 29日13時 EEST に徐々に
全天の4割程度の雲 雲底高度 460m
29日13時 EEST ~ 29日20時 EEST に 確率 30% で一時的に
少しの積乱雲 雲底高度 910m
TAF AMD EFHK 282248Z 2822/2921 06004KT 0500 FG BKN002
TEMPO 2822/2904 1200 BR BKN001
BECMG 2904/2906 9999 NSW BKN005
BECMG 2908/2910 SCT015
PROB30 TEMPO 2910/2917 FEW030CB